Time;durP1;ratioP1;P1;durP2;ratioP2;P2;SDS_P1;SDS_P2;PMS_P1;PMS_P2;Temp;Humidity;BMP_temperature;BMP_pressure;BME280_temperature;BME280_humidity;BME280_pressure;Samples;Min_cycle;Max_cycle;Signal;HPM_P1;HPM_P2
2023/01/10 00:01:59;;;;;;;7.47;2.20;;;6.90;99.90;;;;;;5082255;28;20089;-40
2023/01/10 00:04:28;;;;;;;10.27;2.20;;;6.90;99.90;;;;;;5082261;28;20028;-40
2023/01/10 00:06:54;;;;;;;4.32;1.77;;;6.80;99.90;;;;;;5082442;28;20460;-39
2023/01/10 00:09:20;;;;;;;6.60;1.80;;;6.80;99.90;;;;;;5082640;28;20042;-39
2023/01/10 00:14:33;;;;;;;8.70;1.70;;;6.90;99.90;;;;;;5072855;28;20093;-39
2023/01/10 00:17:00;;;;;;;6.00;1.90;;;6.90;99.90;;;;;;5081472;28;20078;-40
2023/01/10 00:19:25;;;;;;;6.60;1.80;;;7.00;99.90;;;;;;5082966;28;20028;-38
2023/01/10 00:21:51;;;;;;;5.57;1.60;;;7.00;99.90;;;;;;5082826;28;20490;-37
2023/01/10 00:24:22;;;;;;;8.05;1.85;;;7.00;99.90;;;;;;5081490;28;20109;-37
2023/01/10 00:26:53;;;;;;;4.93;1.48;;;7.00;99.90;;;;;;5082813;28;20043;-39
2023/01/10 00:29:25;;;;;;;5.95;1.63;;;7.00;99.90;;;;;;5082151;28;20028;-40
2023/01/10 00:31:53;;;;;;;5.30;1.80;;;7.00;99.90;;;;;;5081687;28;20453;-38
2023/01/10 00:34:22;;;;;;;7.93;2.10;;;6.90;99.90;;;;;;5082183;28;20059;-42
2023/01/10 00:36:48;;;;;;;7.72;2.50;;;6.80;99.90;;;;;;5083207;28;20040;-38
2023/01/10 00:39:15;;;;;;;7.53;2.10;;;6.70;99.90;;;;;;5081096;28;20024;-36
2023/01/10 00:44:25;;;;;;;4.95;1.73;;;6.70;99.90;;;;;;5082704;28;20089;-40
2023/01/10 00:46:51;;;;;;;4.80;1.98;;;6.60;99.90;;;;;;5082302;28;20021;-40
2023/01/10 00:49:17;;;;;;;5.55;1.88;;;6.60;99.90;;;;;;5082135;28;20032;-38
2023/01/10 00:51:43;;;;;;;4.88;1.77;;;6.50;99.90;;;;;;5083099;28;20025;-37
2023/01/10 00:54:13;;;;;;;3.65;2.00;;;6.50;99.90;;;;;;5081266;28;20028;-40
2023/01/10 00:56:39;;;;;;;6.65;1.98;;;6.50;99.90;;;;;;5082565;28;20062;-40
2023/01/10 00:59:05;;;;;;;3.78;2.10;;;6.40;99.90;;;;;;5081271;28;20376;-39
2023/01/10 01:01:31;;;;;;;5.40;2.10;;;6.40;99.90;;;;;;5085358;28;20157;-40
2023/01/10 01:04:00;;;;;;;6.13;1.80;;;6.40;99.90;;;;;;5085838;28;20020;-38
2023/01/10 01:06:26;;;;;;;6.18;1.77;;;6.40;99.90;;;;;;5085434;28;20464;-37
2023/01/10 01:08:52;;;;;;;5.28;2.00;;;6.30;99.90;;;;;;5086175;28;20024;-38
2023/01/10 01:11:17;;;;;;;7.35;2.17;;;6.30;99.90;;;;;;5085689;28;20027;-40
2023/01/10 01:13:43;;;;;;;8.07;2.10;;;6.30;99.90;;;;;;5085428;28;20774;-39
2023/01/10 01:16:09;;;;;;;4.63;1.80;;;6.40;99.90;;;;;;5085163;28;20542;-39
2023/01/10 01:18:34;;;;;;;7.30;1.90;;;6.40;99.90;;;;;;5086045;28;20020;-40
2023/01/10 01:21:02;;;;;;;4.22;1.63;;;6.40;99.90;;;;;;5084175;28;20056;-40
2023/01/10 01:23:28;;;;;;;6.20;2.10;;;6.30;99.90;;;;;;5086070;28;20111;-39
2023/01/10 01:25:55;;;;;;;4.75;1.90;;;6.30;99.90;;;;;;5085662;28;20859;-39
2023/01/10 01:28:21;;;;;;;6.90;1.60;;;6.30;99.90;;;;;;5084668;28;20028;-39
2023/01/10 01:30:50;;;;;;;5.25;1.83;;;6.30;99.90;;;;;;5085270;28;20084;-39
2023/01/10 01:33:16;;;;;;;5.22;1.60;;;6.30;99.90;;;;;;5085277;28;20055;-36
2023/01/10 01:35:46;;;;;;;6.45;2.00;;;6.30;99.90;;;;;;5084520;28;20036;-38
2023/01/10 01:38:12;;;;;;;8.27;1.83;;;6.30;99.90;;;;;;5085217;28;20023;-39
2023/01/10 01:40:40;;;;;;;7.07;2.00;;;6.40;99.90;;;;;;5085345;28;20593;-38
2023/01/10 01:43:22;;;;;;;5.45;1.38;;;6.30;99.90;;;;;;5084074;28;20052;-38
2023/01/10 01:45:48;;;;;;;7.85;1.80;;;6.40;99.90;;;;;;5085306;28;20016;-38
2023/01/10 01:48:28;;;;;;;6.32;1.73;;;6.30;99.90;;;;;;5085278;28;20032;-40
2023/01/10 01:50:54;;;;;;;6.32;1.90;;;6.30;99.90;;;;;;5086035;28;20187;-39
2023/01/10 01:53:29;;;;;;;7.90;2.40;;;6.30;99.90;;;;;;5085408;28;20085;-39
2023/01/10 01:56:22;;;;;;;8.50;1.90;;;6.30;99.90;;;;;;5084405;28;20839;-38
2023/01/10 01:58:56;;;;;;;8.38;1.67;;;6.30;99.90;;;;;;5085190;28;20024;-36
2023/01/10 02:01:22;;;;;;;4.32;1.50;;;6.20;99.90;;;;;;5084940;28;20672;-38
2023/01/10 02:03:55;;;;;;;4.75;1.52;;;6.20;99.90;;;;;;5084507;28;20070;-37
2023/01/10 02:06:23;;;;;;;5.40;1.30;;;6.10;99.90;;;;;;5084277;28;20089;-35
2023/01/10 02:08:58;;;;;;;5.80;1.60;;;6.10;99.90;;;;;;5085617;28;20062;-36
2023/01/10 02:11:23;;;;;;;9.30;1.85;;;6.10;99.90;;;;;;5083318;28;20123;-38
2023/01/10 02:13:49;;;;;;;5.97;1.88;;;6.10;99.90;;;;;;5084085;28;20115;-39
2023/01/10 02:16:15;;;;;;;10.85;2.00;;;6.00;99.90;;;;;;5084643;28;20114;-40
2023/01/10 02:18:42;;;;;;;5.68;1.38;;;6.00;99.90;;;;;;5084307;28;20077;-39
2023/01/10 02:21:14;;;;;;;8.95;1.63;;;6.10;99.90;;;;;;5084289;28;20034;-36
2023/01/10 02:24:17;;;;;;;5.10;1.13;;;6.00;99.90;;;;;;5084601;28;20032;-38
2023/01/10 02:27:16;;;;;;;7.82;1.65;;;6.10;99.90;;;;;;5084555;28;20518;-38
2023/01/10 02:30:06;;;;;;;7.35;1.70;;;6.20;99.90;;;;;;5084629;28;20081;-39
2023/01/10 02:32:40;;;;;;;6.05;1.50;;;6.20;99.90;;;;;;5083566;28;20051;-37
2023/01/10 02:35:26;;;;;;;6.50;1.58;;;6.30;99.90;;;;;;5083920;28;20032;-39
2023/01/10 02:38:20;;;;;;;7.32;1.55;;;6.30;99.90;;;;;;5083541;28;20753;-37
2023/01/10 02:40:50;;;;;;;6.13;1.50;;;6.40;99.90;;;;;;5064278;28;20074;-38
2023/01/10 02:43:25;;;;;;;6.25;1.73;;;6.50;99.90;;;;;;5079785;28;20024;-37
2023/01/10 02:46:24;;;;;;;5.03;1.10;;;6.60;99.90;;;;;;5064000;28;20128;-39
2023/01/10 02:48:53;;;;;;;5.60;2.35;;;6.60;99.90;;;;;;5082909;28;20026;-38
2023/01/10 02:51:26;;;;;;;6.13;1.48;;;6.60;99.90;;;;;;5083637;28;20093;-36
2023/01/10 02:53:54;;;;;;;6.13;1.70;;;6.60;99.90;;;;;;5083107;28;20613;-40
2023/01/10 02:56:23;;;;;;;7.63;1.80;;;6.70;99.90;;;;;;5083020;28;20119;-38
2023/01/10 02:59:07;;;;;;;7.28;2.00;;;6.70;99.90;;;;;;5083202;28;20020;-38
2023/01/10 03:01:58;;;;;;;6.07;1.50;;;6.70;99.90;;;;;;5084504;28;20802;-39
2023/01/10 03:04:36;;;;;;;7.40;1.80;;;6.70;99.90;;;;;;5083786;28;20310;-38
2023/01/10 03:07:21;;;;;;;7.57;1.60;;;6.70;99.90;;;;;;5082389;28;20513;-40
2023/01/10 03:10:04;;;;;;;6.20;1.58;;;6.70;99.90;;;;;;5083323;28;20474;-39
2023/01/10 03:12:47;;;;;;;5.53;1.63;;;6.70;99.90;;;;;;5083860;28;20032;-39
2023/01/10 03:15:17;;;;;;;13.43;2.08;;;6.70;99.90;;;;;;5080953;28;20596;-39
2023/01/10 03:18:07;;;;;;;7.03;2.00;;;6.70;99.90;;;;;;5084119;28;20024;-39
2023/01/10 03:20:39;;;;;;;8.32;1.50;;;6.60;99.90;;;;;;5081885;28;20032;-39
2023/01/10 03:23:05;;;;;;;7.28;1.70;;;6.60;99.90;;;;;;5082481;28;20487;-40
2023/01/10 03:25:35;;;;;;;4.18;1.30;;;6.70;99.90;;;;;;5083637;28;20038;-39
2023/01/10 03:28:16;;;;;;;8.98;1.70;;;6.70;99.90;;;;;;5081700;28;20024;-39
2023/01/10 03:30:53;;;;;;;8.63;1.90;;;6.70;99.90;;;;;;5081065;28;20027;-39
2023/01/10 03:33:24;;;;;;;7.50;1.63;;;6.70;99.90;;;;;;5082642;28;20143;-40
2023/01/10 03:35:59;;;;;;;7.70;1.50;;;6.80;99.90;;;;;;5082181;28;20459;-40
2023/01/10 03:38:42;;;;;;;8.50;2.05;;;6.70;99.90;;;;;;5083345;28;20042;-38
2023/01/10 03:41:25;;;;;;;11.00;2.10;;;6.70;99.90;;;;;;5080398;28;20016;-40
2023/01/10 03:47:13;;;;;;;7.35;1.90;;;6.70;99.90;;;;;;5076100;28;20047;-36
2023/01/10 03:49:42;;;;;;;8.15;1.90;;;6.70;99.90;;;;;;5082585;28;20032;-40
2023/01/10 03:52:12;;;;;;;9.50;2.72;;;6.70;99.90;;;;;;5083172;28;20031;-38
2023/01/10 03:54:37;;;;;;;7.22;2.17;;;6.70;99.90;;;;;;5083465;28;20082;-38
2023/01/10 03:57:06;;;;;;;6.15;2.13;;;6.70;99.90;;;;;;5081605;28;20035;-39
2023/01/10 03:59:32;;;;;;;11.85;2.85;;;6.70;99.90;;;;;;5083048;28;20012;-39
2023/01/10 04:01:58;;;;;;;9.55;2.42;;;6.70;99.90;;;;;;5082321;28;20020;-39
2023/01/10 04:04:23;;;;;;;8.05;2.13;;;6.70;99.90;;;;;;5083277;28;20032;-39
2023/01/10 04:06:49;;;;;;;11.45;2.40;;;6.70;99.90;;;;;;5083719;28;20039;-39
2023/01/10 04:09:14;;;;;;;6.22;2.38;;;6.80;99.90;;;;;;5082124;28;20026;-40
2023/01/10 04:11:40;;;;;;;6.53;2.13;;;6.80;99.90;;;;;;5083169;28;20024;-39
2023/01/10 04:14:06;;;;;;;8.15;2.50;;;6.80;99.90;;;;;;5082549;28;20063;-39
2023/01/10 04:16:31;;;;;;;6.80;2.15;;;6.90;99.90;;;;;;5082070;28;20036;-40
2023/01/10 04:18:57;;;;;;;6.30;1.88;;;6.80;99.90;;;;;;5082475;28;20028;-40
2023/01/10 04:21:22;;;;;;;10.20;2.70;;;6.80;99.90;;;;;;5082415;28;20492;-39
2023/01/10 04:23:48;;;;;;;14.05;3.33;;;6.80;99.90;;;;;;5082184;28;20359;-37
2023/01/10 04:26:13;;;;;;;8.52;2.60;;;6.80;99.90;;;;;;5081667;28;20466;-39
2023/01/10 04:28:39;;;;;;;8.40;2.70;;;6.80;99.90;;;;;;5082902;28;20386;-39
2023/01/10 04:31:04;;;;;;;9.45;3.15;;;6.80;99.90;;;;;;5082206;28;20103;-36
2023/01/10 04:33:31;;;;;;;8.25;3.00;;;6.80;99.90;;;;;;5082949;28;20052;-38
2023/01/10 04:35:56;;;;;;;9.32;3.05;;;6.80;99.90;;;;;;5084515;28;20551;-38
2023/01/10 04:38:22;;;;;;;13.40;3.35;;;6.80;99.90;;;;;;5086515;28;20111;-39
2023/01/10 04:40:55;;;;;;;9.80;3.53;;;6.80;99.90;;;;;;5087090;28;20537;-39
2023/01/10 04:43:21;;;;;;;8.50;2.72;;;6.80;99.90;;;;;;5086192;28;20016;-40
2023/01/10 04:45:47;;;;;;;9.95;3.47;;;6.80;99.90;;;;;;5085543;28;20066;-39
2023/01/10 04:48:13;;;;;;;11.52;3.17;;;6.70;99.90;;;;;;5078130;28;20371;-37
2023/01/10 04:50:38;;;;;;;11.30;3.20;;;6.70;99.90;;;;;;5087010;28;20048;-40
2023/01/10 04:53:04;;;;;;;10.68;3.35;;;6.80;99.90;;;;;;5085750;28;20547;-39
2023/01/10 04:55:31;;;;;;;12.82;3.42;;;6.70;99.90;;;;;;5086689;28;20475;-36
2023/01/10 04:57:57;;;;;;;11.88;3.25;;;6.70;99.90;;;;;;5085737;28;20055;-42
2023/01/10 05:00:22;;;;;;;11.55;3.00;;;6.70;99.90;;;;;;5085891;28;20539;-36
2023/01/10 05:02:48;;;;;;;10.43;3.65;;;6.70;99.90;;;;;;5086157;28;20156;-40
2023/01/10 05:05:14;;;;;;;11.73;3.53;;;6.70;99.90;;;;;;5085474;28;20031;-36
2023/01/10 05:07:40;;;;;;;10.57;2.95;;;6.70;99.90;;;;;;5086742;28;20059;-38
2023/01/10 05:10:12;;;;;;;8.02;2.83;;;6.70;99.90;;;;;;5085423;28;20115;-37
2023/01/10 05:12:38;;;;;;;11.10;3.13;;;6.70;99.90;;;;;;5085582;28;20024;-39
2023/01/10 05:15:05;;;;;;;12.10;3.58;;;6.70;99.90;;;;;;5086121;28;20039;-38
2023/01/10 05:17:30;;;;;;;11.57;3.42;;;6.70;99.90;;;;;;5085963;28;20028;-36
2023/01/10 05:19:56;;;;;;;9.23;2.88;;;6.70;99.90;;;;;;5085377;28;20024;-38
2023/01/10 05:22:21;;;;;;;8.93;2.78;;;6.70;99.90;;;;;;5085632;28;20032;-38
2023/01/10 05:24:47;;;;;;;8.63;2.58;;;6.70;99.90;;;;;;5086460;28;20024;-39
2023/01/10 05:27:12;;;;;;;8.57;2.78;;;6.80;99.90;;;;;;5084661;28;20020;-39
2023/01/10 05:29:38;;;;;;;12.55;3.33;;;6.80;99.90;;;;;;5085859;28;20666;-36
2023/01/10 05:32:04;;;;;;;9.63;2.90;;;6.80;99.90;;;;;;5085195;28;21029;-39
2023/01/10 05:34:29;;;;;;;8.90;3.10;;;6.80;99.90;;;;;;5084629;28;20035;-39
2023/01/10 05:36:55;;;;;;;14.93;3.20;;;6.80;99.90;;;;;;5086058;28;20498;-37
2023/01/10 05:39:23;;;;;;;11.88;3.55;;;6.80;99.90;;;;;;5084921;28;20024;-39
2023/01/10 05:41:49;;;;;;;8.35;2.75;;;6.80;99.90;;;;;;5085429;28;20028;-39
2023/01/10 05:44:18;;;;;;;11.05;2.90;;;6.80;99.90;;;;;;5085616;28;20042;-39
2023/01/10 05:46:43;;;;;;;11.75;2.92;;;6.80;99.90;;;;;;5084434;28;20032;-39
2023/01/10 05:49:09;;;;;;;11.73;3.17;;;6.70;99.90;;;;;;5083898;28;20027;-39
2023/01/10 05:51:37;;;;;;;10.35;2.88;;;6.70;99.90;;;;;;5086011;28;20074;-38
2023/01/10 05:54:03;;;;;;;14.13;3.70;;;6.70;99.90;;;;;;5084593;28;20190;-38
2023/01/10 05:56:29;;;;;;;11.65;3.25;;;6.70;99.90;;;;;;5085269;28;20051;-36
2023/01/10 05:58:55;;;;;;;9.32;2.90;;;6.70;99.90;;;;;;5084905;28;20060;-39
2023/01/10 06:01:21;;;;;;;8.95;2.80;;;6.70;99.90;;;;;;5084951;28;20032;-38
2023/01/10 06:03:47;;;;;;;14.77;3.42;;;6.70;99.90;;;;;;5085122;28;20020;-39
2023/01/10 06:06:13;;;;;;;12.18;3.65;;;6.80;99.90;;;;;;5084683;28;20032;-34
2023/01/10 06:08:39;;;;;;;11.73;3.45;;;6.80;99.90;;;;;;5085158;28;20012;-39
2023/01/10 06:11:05;;;;;;;14.27;3.50;;;6.80;99.90;;;;;;5084112;28;20036;-35
2023/01/10 06:13:31;;;;;;;12.35;3.00;;;6.80;99.90;;;;;;5085031;28;20482;-36
2023/01/10 06:15:56;;;;;;;14.63;3.35;;;6.90;99.90;;;;;;5083593;28;20035;-36
2023/01/10 06:18:25;;;;;;;12.88;3.63;;;6.90;99.90;;;;;;5085291;28;20024;-39
2023/01/10 06:20:51;;;;;;;13.68;4.05;;;6.90;99.90;;;;;;5084427;28;20035;-36
2023/01/10 06:23:16;;;;;;;12.25;3.55;;;6.90;99.90;;;;;;5083555;28;20024;-38
2023/01/10 06:25:42;;;;;;;14.50;3.65;;;6.90;99.90;;;;;;5084628;28;20497;-39
2023/01/10 06:28:12;;;;;;;12.60;3.30;;;6.80;99.90;;;;;;5083897;28;20042;-39
2023/01/10 06:30:40;;;;;;;12.50;3.60;;;6.80;99.90;;;;;;5084343;28;20383;-39
2023/01/10 06:33:07;;;;;;;13.50;3.28;;;6.80;99.90;;;;;;5084167;28;20044;-40
2023/01/10 06:35:33;;;;;;;9.07;2.78;;;6.80;99.90;;;;;;5084221;28;20139;-35
2023/01/10 06:37:59;;;;;;;12.43;4.22;;;6.80;99.90;;;;;;5083595;28;20031;-38
2023/01/10 06:40:26;;;;;;;7.18;2.55;;;6.80;99.90;;;;;;5084747;28;20410;-38
2023/01/10 06:42:51;;;;;;;10.13;3.45;;;6.80;99.90;;;;;;5084229;28;20035;-39
2023/01/10 06:45:17;;;;;;;12.63;3.15;;;6.80;99.90;;;;;;5083220;28;20426;-38
2023/01/10 06:47:42;;;;;;;18.23;3.85;;;6.80;99.90;;;;;;5084308;28;20449;-37
2023/01/10 06:50:09;;;;;;;12.98;3.40;;;6.80;99.90;;;;;;5083525;28;20655;-40
2023/01/10 06:52:35;;;;;;;11.52;3.03;;;6.80;99.90;;;;;;5084096;28;20055;-38
2023/01/10 06:55:00;;;;;;;9.93;2.85;;;6.80;99.90;;;;;;5084299;28;20834;-40
2023/01/10 06:57:27;;;;;;;15.52;3.45;;;6.90;99.90;;;;;;5083903;28;20108;-39
2023/01/10 06:59:53;;;;;;;9.35;3.30;;;6.90;99.90;;;;;;5082905;28;20096;-37
2023/01/10 07:02:18;;;;;;;14.70;3.85;;;6.90;99.90;;;;;;5083380;28;20733;-40
2023/01/10 07:04:47;;;;;;;10.75;2.90;;;6.90;99.90;;;;;;5083832;28;20509;-39
2023/01/10 07:07:13;;;;;;;12.07;3.65;;;6.90;99.90;;;;;;5079782;28;20505;-40
2023/01/10 07:09:38;;;;;;;12.73;3.67;;;6.90;99.90;;;;;;5083539;28;20043;-38
2023/01/10 07:12:04;;;;;;;13.27;3.00;;;6.90;99.90;;;;;;5081883;28;20019;-39
2023/01/10 07:14:30;;;;;;;12.75;2.83;;;6.90;99.90;;;;;;5083760;28;20028;-40
2023/01/10 07:16:55;;;;;;;17.77;3.30;;;7.00;99.90;;;;;;5080873;28;20143;-36
2023/01/10 07:19:21;;;;;;;12.10;2.97;;;6.90;99.90;;;;;;5081066;28;20028;-39
2023/01/10 07:21:47;;;;;;;11.32;2.90;;;7.00;99.90;;;;;;5082110;28;20024;-39
2023/01/10 07:24:12;;;;;;;10.50;3.33;;;7.00;99.90;;;;;;5082220;28;20039;-39
2023/01/10 07:26:41;;;;;;;10.63;3.15;;;6.90;99.90;;;;;;5082000;28;20533;-39
2023/01/10 07:29:07;;;;;;;14.90;4.28;;;7.00;99.90;;;;;;5081653;28;20070;-36
2023/01/10 07:31:35;;;;;;;14.32;3.28;;;7.00;99.90;;;;;;5082778;28;20131;-39
2023/01/10 07:34:01;;;;;;;11.32;3.20;;;7.00;99.90;;;;;;5081554;28;20028;-40
2023/01/10 07:36:27;;;;;;;12.50;3.65;;;7.00;99.90;;;;;;5081100;28;20056;-36
2023/01/10 07:38:53;;;;;;;13.07;3.33;;;7.00;99.90;;;;;;5082546;28;20016;-37
2023/01/10 07:41:19;;;;;;;16.58;4.07;;;7.00;99.90;;;;;;5082201;28;20109;-36
2023/01/10 07:43:50;;;;;;;12.20;3.20;;;7.00;99.90;;;;;;5082818;28;20020;-39
2023/01/10 07:46:16;;;;;;;14.82;3.28;;;7.00;99.90;;;;;;5082279;28;20031;-39
2023/01/10 07:48:42;;;;;;;15.25;3.45;;;6.90;99.90;;;;;;5081205;28;20326;-39
2023/01/10 07:51:08;;;;;;;12.68;3.35;;;6.90;99.90;;;;;;5082209;28;20032;-36
2023/01/10 07:53:34;;;;;;;17.35;3.92;;;6.90;99.90;;;;;;5082752;28;20020;-39
2023/01/10 07:56:01;;;;;;;11.13;3.20;;;6.80;99.90;;;;;;5081616;28;20099;-38
2023/01/10 07:58:27;;;;;;;13.90;3.10;;;6.90;99.90;;;;;;5082068;28;20070;-39
2023/01/10 08:01:00;;;;;;;10.32;2.60;;;6.90;99.90;;;;;;5082535;28;20292;-39
2023/01/10 08:03:26;;;;;;;;;;;6.90;99.90;;;;;;5083249;28;20032;-39
2023/01/10 08:05:58;;;;;;;8.63;2.97;;;6.90;99.90;;;;;;5082985;28;19968;-36
2023/01/10 08:08:24;;;;;;;10.95;2.60;;;6.90;99.90;;;;;;5082286;28;20160;-38
2023/01/10 08:10:53;;;;;;;14.30;3.20;;;6.90;99.90;;;;;;5082162;28;20095;-39
2023/01/10 08:13:18;;;;;;;11.55;3.20;;;6.90;99.90;;;;;;5081235;28;20043;-36
2023/01/10 08:15:45;;;;;;;9.20;2.90;;;6.90;99.90;;;;;;5082636;28;20043;-35
2023/01/10 08:18:11;;;;;;;14.20;3.13;;;6.90;99.90;;;;;;5082288;28;20042;-40
2023/01/10 08:20:37;;;;;;;17.73;3.90;;;6.90;99.90;;;;;;5083599;28;20411;-39
2023/01/10 08:23:03;;;;;;;10.60;3.00;;;7.00;99.90;;;;;;5081474;28;20020;-40
2023/01/10 08:25:28;;;;;;;10.88;2.85;;;7.00;99.90;;;;;;5082613;28;20109;-34
2023/01/10 08:27:54;;;;;;;17.08;3.25;;;7.00;99.90;;;;;;5083286;28;20113;-35
2023/01/10 08:30:20;;;;;;;13.20;3.38;;;7.00;99.90;;;;;;5081112;28;20027;-36
2023/01/10 08:32:46;;;;;;;11.88;3.05;;;7.00;99.90;;;;;;5082788;28;20048;-39
2023/01/10 08:35:12;;;;;;;13.02;2.63;;;7.00;99.90;;;;;;5082172;28;20021;-39
2023/01/10 08:37:37;;;;;;;12.98;2.90;;;7.00;99.90;;;;;;5082304;28;20028;-39
2023/01/10 08:40:04;;;;;;;13.35;3.25;;;7.00;99.90;;;;;;5081321;28;20383;-39
2023/01/10 08:42:29;;;;;;;13.75;3.20;;;7.00;99.90;;;;;;5082385;28;20590;-39
2023/01/10 08:44:55;;;;;;;12.82;3.00;;;7.00;99.90;;;;;;5080513;28;20024;-37
2023/01/10 08:47:20;;;;;;;13.70;3.38;;;7.10;99.90;;;;;;5081780;28;20031;-38
2023/01/10 08:49:48;;;;;;;13.15;3.05;;;7.10;99.90;;;;;;5081901;28;20025;-37
2023/01/10 08:52:14;;;;;;;7.82;2.55;;;7.10;99.90;;;;;;5081177;28;20028;-39
2023/01/10 08:54:40;;;;;;;12.60;3.20;;;7.10;99.90;;;;;;5082335;28;20020;-38
2023/01/10 08:57:05;;;;;;;14.57;3.67;;;7.20;99.90;;;;;;5081656;28;20036;-37
2023/01/10 08:59:31;;;;;;;17.98;3.30;;;7.20;99.90;;;;;;5081369;28;20023;-36
2023/01/10 09:01:58;;;;;;;15.02;3.95;;;7.20;99.90;;;;;;5082327;28;20487;-38
2023/01/10 09:04:25;;;;;;;14.38;2.95;;;7.30;99.90;;;;;;5081179;28;20062;-39
2023/01/10 09:06:50;;;;;;;12.48;2.50;;;7.20;99.90;;;;;;5082322;28;20692;-38
2023/01/10 09:09:16;;;;;;;11.95;2.90;;;7.20;99.90;;;;;;5081954;28;20233;-39
2023/01/10 09:11:42;;;;;;;16.38;2.75;;;7.20;99.90;;;;;;5080892;28;20047;-38
2023/01/10 09:14:07;;;;;;;11.57;3.38;;;7.30;99.90;;;;;;5081093;28;20028;-35
2023/01/10 09:16:33;;;;;;;12.52;3.05;;;7.30;99.90;;;;;;5081957;28;20040;-36
2023/01/10 09:18:58;;;;;;;10.73;2.60;;;7.30;99.90;;;;;;5081109;28;20022;-39
2023/01/10 09:21:24;;;;;;;11.30;2.83;;;7.30;99.90;;;;;;5081945;28;20652;-40
2023/01/10 09:23:49;;;;;;;14.70;3.15;;;7.30;99.90;;;;;;5085815;28;20030;-40
2023/01/10 09:26:15;;;;;;;12.57;3.22;;;7.40;99.90;;;;;;5084106;28;20036;-36
2023/01/10 09:28:40;;;;;;;14.60;3.17;;;7.30;99.90;;;;;;5086095;28;20058;-39
2023/01/10 09:31:07;;;;;;;16.65;3.88;;;7.40;99.90;;;;;;5084766;28;20536;-39
2023/01/10 09:33:34;;;;;;;12.55;3.22;;;7.40;99.90;;;;;;5085858;28;20032;-38
2023/01/10 09:36:00;;;;;;;15.80;3.78;;;7.40;99.90;;;;;;5084485;28;20696;-38
2023/01/10 09:38:26;;;;;;;16.60;3.72;;;7.50;99.90;;;;;;5083621;28;20027;-39
2023/01/10 09:41:13;;;;;;;17.90;3.50;;;7.40;99.90;;;;;;5084868;28;20016;-38
2023/01/10 09:44:06;;;;;;;16.20;2.95;;;7.40;99.90;;;;;;5076391;28;20108;-38
2023/01/10 09:46:49;;;;;;;;;;;7.40;99.90;;;;;;5085435;28;20070;-37
2023/01/10 09:49:29;;;;;;;14.98;2.90;;;7.50;99.90;;;;;;5085620;28;19981;-37
2023/01/10 09:51:58;;;;;;;17.02;2.85;;;7.40;99.90;;;;;;5085316;28;20081;-39
2023/01/10 09:54:38;;;;;;;10.80;3.00;;;7.40;99.90;;;;;;5084480;28;20177;-39
2023/01/10 09:57:04;;;;;;;14.60;3.67;;;7.40;99.90;;;;;;5085085;28;20028;-42
2023/01/10 09:59:37;;;;;;;15.20;3.10;;;7.40;99.90;;;;;;5085383;28;20040;-38
2023/01/10 10:02:38;;;;;;;7.88;2.60;;;7.40;99.90;;;;;;5083616;28;20016;-40
2023/01/10 10:05:29;;;;;;;14.00;3.38;;;7.40;99.90;;;;;;5084770;28;20032;-36
2023/01/10 10:08:03;;;;;;;15.73;4.32;;;7.40;99.90;;;;;;5084282;28;20113;-38
2023/01/10 10:10:40;;;;;;;15.75;3.78;;;7.50;99.90;;;;;;5084674;28;20035;-39
2023/01/10 10:13:35;;;;;;;15.20;3.60;;;7.50;99.90;;;;;;5084300;28;20491;-39
2023/01/10 10:16:16;;;;;;;14.48;3.13;;;7.50;99.90;;;;;;5063393;28;20068;-40
2023/01/10 10:18:54;;;;;;;13.50;2.80;;;7.40;99.90;;;;;;5082453;28;20026;-39
2023/01/10 10:21:35;;;;;;;7.68;2.20;;;7.40;99.90;;;;;;5085066;28;20020;-37
2023/01/10 10:24:21;;;;;;;10.50;3.08;;;7.40;99.90;;;;;;5083095;28;20581;-40
2023/01/10 10:27:18;;;;;;;19.70;4.40;;;7.50;99.90;;;;;;5084642;28;20062;-39
2023/01/10 10:30:03;;;;;;;13.32;3.88;;;7.40;99.90;;;;;;5081933;28;20840;-39
2023/01/10 10:32:50;;;;;;;16.08;4.70;;;7.40;99.90;;;;;;5084608;28;20036;-39
2023/01/10 10:35:39;;;;;;;12.93;4.55;;;7.40;99.90;;;;;;5073303;28;20039;-38
2023/01/10 10:38:16;;;;;;;13.55;4.00;;;7.40;99.90;;;;;;5082973;28;20807;-39
2023/01/10 10:40:44;;;;;;;12.55;3.78;;;7.40;99.90;;;;;;5084317;28;20015;-39
2023/01/10 10:43:20;;;;;;;15.93;4.15;;;7.40;99.90;;;;;;5082372;28;20024;-39
2023/01/10 10:46:18;;;;;;;13.13;3.88;;;7.40;99.90;;;;;;5084546;28;20044;-39
2023/01/10 10:48:58;;;;;;;17.27;4.03;;;7.40;99.90;;;;;;5068052;28;20162;-39
2023/01/10 10:51:50;;;;;;;15.20;3.78;;;7.50;99.90;;;;;;5082801;28;20028;-37
2023/01/10 10:54:16;;;;;;;17.40;3.60;;;7.50;99.90;;;;;;5082892;28;20036;-39
2023/01/10 10:56:43;;;;;;;14.00;2.80;;;7.50;99.90;;;;;;5084648;28;20032;-39
2023/01/10 10:59:15;;;;;;;15.38;3.40;;;7.50;99.90;;;;;;5083839;28;20027;-38
2023/01/10 11:01:45;;;;;;;10.43;3.72;;;7.60;99.90;;;;;;5084379;28;20028;-39
2023/01/10 11:04:14;;;;;;;13.10;4.07;;;7.60;99.90;;;;;;5082356;28;20016;-39
2023/01/10 11:06:47;;;;;;;8.95;3.08;;;7.60;99.90;;;;;;5084317;28;20040;-39
2023/01/10 11:09:42;;;;;;;15.30;3.40;;;7.60;99.90;;;;;;5083084;28;20016;-39
2023/01/10 11:12:13;;;;;;;19.80;3.22;;;7.60;99.90;;;;;;5082487;28;20028;-40
2023/01/10 11:14:45;;;;;;;9.63;3.10;;;7.60;99.90;;;;;;5083591;28;20213;-38
2023/01/10 11:17:20;;;;;;;12.90;2.85;;;7.60;99.90;;;;;;5082753;28;20047;-38
2023/01/10 11:20:13;;;;;;;12.30;3.00;;;7.60;99.90;;;;;;5083096;28;20032;-39
2023/01/10 11:22:47;;;;;;;11.63;2.78;;;7.70;99.90;;;;;;5080818;28;20072;-39
2023/01/10 11:25:16;;;;;;;11.02;2.60;;;7.70;99.90;;;;;;5081825;28;20114;-39
2023/01/10 11:27:57;;;;;;;12.48;2.65;;;7.70;99.90;;;;;;5083795;28;20028;-38
2023/01/10 11:30:25;;;;;;;11.45;2.83;;;7.70;99.90;;;;;;5083575;28;20027;-39
2023/01/10 11:32:56;;;;;;;12.13;2.78;;;7.70;99.90;;;;;;5083117;28;20090;-38
2023/01/10 11:35:32;;;;;;;7.97;2.38;;;7.70;99.90;;;;;;5082763;28;20767;-39
2023/01/10 11:38:02;;;;;;;9.95;2.45;;;7.70;99.90;;;;;;5082997;28;20387;-39
2023/01/10 11:40:33;;;;;;;7.60;2.28;;;7.70;99.90;;;;;;5081952;28;20153;-39
2023/01/10 11:43:19;;;;;;;13.18;2.90;;;7.70;99.90;;;;;;5082602;28;20028;-39
2023/01/10 11:45:51;;;;;;;11.25;3.08;;;7.80;99.90;;;;;;5082251;28;20053;-40
2023/01/10 11:48:21;;;;;;;11.70;2.80;;;7.80;99.90;;;;;;5081759;28;20028;-36
2023/01/10 11:50:50;;;;;;;11.27;2.55;;;7.90;99.90;;;;;;5083270;28;20016;-40
2023/01/10 11:53:34;;;;;;;6.13;2.10;;;7.90;99.90;;;;;;5081564;28;20029;-37
2023/01/10 11:56:01;;;;;;;10.82;2.67;;;8.00;99.90;;;;;;5082359;28;20024;-39
2023/01/10 11:58:32;;;;;;;18.70;3.35;;;8.00;99.90;;;;;;5083314;28;20028;-39
2023/01/10 12:00:58;;;;;;;14.68;2.80;;;8.00;99.90;;;;;;5081353;28;20066;-40
2023/01/10 12:03:37;;;;;;;13.93;2.95;;;8.00;99.90;;;;;;5082255;28;20563;-39
2023/01/10 12:06:13;;;;;;;10.68;2.63;;;8.00;99.90;;;;;;5081294;28;20048;-37
2023/01/10 12:08:43;;;;;;;13.02;3.55;;;8.00;99.90;;;;;;5082426;28;20042;-40
2023/01/10 12:11:17;;;;;;;12.10;2.53;;;8.00;99.90;;;;;;5082105;28;20039;-39
2023/01/10 12:13:46;;;;;;;12.93;2.60;;;8.00;99.90;;;;;;5082614;28;20581;-39
2023/01/10 12:16:20;;;;;;;11.52;2.90;;;8.00;99.90;;;;;;5082065;28;20361;-40
2023/01/10 12:18:47;;;;;;;10.00;2.75;;;8.00;99.90;;;;;;5073260;28;20055;-40
2023/01/10 12:21:18;;;;;;;10.98;2.47;;;8.00;99.90;;;;;;5082103;28;20020;-38
2023/01/10 12:23:45;;;;;;;11.73;2.55;;;8.00;99.90;;;;;;5083112;28;20364;-39
2023/01/10 12:26:12;;;;;;;10.18;2.30;;;8.00;99.90;;;;;;5082723;28;20081;-38
2023/01/10 12:28:41;;;;;;;9.65;2.63;;;8.00;99.90;;;;;;5081911;28;20012;-39
2023/01/10 12:31:14;;;;;;;13.48;3.22;;;8.00;99.90;;;;;;5082172;28;20059;-41
2023/01/10 12:33:45;;;;;;;;;;;8.00;99.90;;;;;;5082737;28;20024;-38
2023/01/10 12:36:48;;;;;;;15.13;3.25;;;8.10;99.90;;;;;;5081375;28;20011;-39
2023/01/10 12:39:29;;;;;;;14.02;3.45;;;8.00;99.90;;;;;;5082049;28;20032;-38
2023/01/10 12:45:05;;;;;;;12.73;3.13;;;8.00;99.90;;;;;;5082100;28;20750;-35
2023/01/10 12:47:53;;;;;;;12.32;2.97;;;8.00;99.90;;;;;;5082879;28;20052;-38
2023/01/10 12:50:39;;;;;;;17.55;4.03;;;8.00;99.90;;;;;;5081826;28;20032;-38
2023/01/10 12:53:32;;;;;;;9.98;2.78;;;8.00;99.90;;;;;;5081753;28;20115;-39
2023/01/10 12:56:06;;;;;;;13.77;3.33;;;8.10;99.90;;;;;;5082311;28;20510;-39
2023/01/10 12:58:39;;;;;;;12.50;2.90;;;8.00;99.90;;;;;;5085698;28;20118;-39
2023/01/10 13:01:06;;;;;;;17.70;3.53;;;8.00;99.90;;;;;;5085720;28;20024;-38
2023/01/10 13:03:34;;;;;;;12.77;2.95;;;8.00;99.90;;;;;;5085860;28;20116;-40
2023/01/10 13:06:00;;;;;;;15.15;3.60;;;8.00;99.90;;;;;;5085494;28;20030;-36
2023/01/10 13:08:29;;;;;;;17.85;3.92;;;8.00;99.90;;;;;;5085933;28;20113;-38
2023/01/10 13:11:00;;;;;;;14.60;3.95;;;8.10;99.90;;;;;;5086220;28;20633;-39
2023/01/10 13:13:40;;;;;;;20.77;5.18;;;8.00;99.90;;;;;;5086024;28;20039;-39
2023/01/10 13:16:44;;;;;;;17.95;6.10;;;8.10;99.90;;;;;;5085579;28;20063;-40
2023/01/10 13:19:09;;;;;;;16.58;5.95;;;8.10;99.90;;;;;;5084595;28;20027;-40
2023/01/10 13:21:37;;;;;;;17.92;5.50;;;8.10;99.90;;;;;;5086323;28;20032;-40
2023/01/10 13:24:05;;;;;;;21.75;5.38;;;8.10;99.90;;;;;;5085349;28;20070;-39